sensor_id;sensor_type;location;lat;lon;timestamp;P1;durP1;ratioP1;P2;durP2;ratioP2
17091;SDS011;8661;45.700;4.880;2022-09-28T00:00:41;0.10;;;0.10;;
17091;SDS011;8661;45.700;4.880;2022-09-28T00:03:11;0.10;;;0.10;;
17091;SDS011;8661;45.700;4.880;2022-09-28T00:05:38;0.10;;;0.10;;
17091;SDS011;8661;45.700;4.880;2022-09-28T00:08:06;0.00;;;0.00;;
17091;SDS011;8661;45.700;4.880;2022-09-28T00:10:33;0.10;;;0.10;;
17091;SDS011;8661;45.700;4.880;2022-09-28T00:13:00;0.10;;;0.10;;
17091;SDS011;8661;45.700;4.880;2022-09-28T00:15:27;0.10;;;0.10;;
17091;SDS011;8661;45.700;4.880;2022-09-28T00:17:54;0.00;;;0.00;;
17091;SDS011;8661;45.700;4.880;2022-09-28T00:20:21;0.40;;;0.40;;
17091;SDS011;8661;45.700;4.880;2022-09-28T00:22:48;0.10;;;0.10;;
17091;SDS011;8661;45.700;4.880;2022-09-28T00:25:16;0.00;;;0.00;;
17091;SDS011;8661;45.700;4.880;2022-09-28T00:27:48;0.10;;;0.10;;
17091;SDS011;8661;45.700;4.880;2022-09-28T00:30:15;0.10;;;0.10;;
17091;SDS011;8661;45.700;4.880;2022-09-28T00:32:42;0.10;;;0.10;;
17091;SDS011;8661;45.700;4.880;2022-09-28T00:35:09;0.10;;;0.10;;
17091;SDS011;8661;45.700;4.880;2022-09-28T00:37:36;0.00;;;0.00;;
17091;SDS011;8661;45.700;4.880;2022-09-28T00:40:03;0.00;;;0.00;;
17091;SDS011;8661;45.700;4.880;2022-09-28T00:42:32;0.00;;;0.00;;
17091;SDS011;8661;45.700;4.880;2022-09-28T00:44:59;0.10;;;0.10;;
17091;SDS011;8661;45.700;4.880;2022-09-28T00:47:40;0.10;;;0.10;;
17091;SDS011;8661;45.700;4.880;2022-09-28T00:50:18;0.10;;;0.10;;
17091;SDS011;8661;45.700;4.880;2022-09-28T00:52:51;0.00;;;0.00;;
17091;SDS011;8661;45.700;4.880;2022-09-28T00:55:24;0.10;;;0.10;;
17091;SDS011;8661;45.700;4.880;2022-09-28T00:57:57;0.00;;;0.00;;
17091;SDS011;8661;45.700;4.880;2022-09-28T01:00:27;0.00;;;0.00;;
17091;SDS011;8661;45.700;4.880;2022-09-28T01:02:54;0.00;;;0.00;;
17091;SDS011;8661;45.700;4.880;2022-09-28T01:05:24;0.07;;;0.07;;
17091;SDS011;8661;45.700;4.880;2022-09-28T01:07:52;0.00;;;0.00;;
17091;SDS011;8661;45.700;4.880;2022-09-28T01:10:21;0.10;;;0.10;;
17091;SDS011;8661;45.700;4.880;2022-09-28T01:12:48;0.10;;;0.10;;
17091;SDS011;8661;45.700;4.880;2022-09-28T01:15:17;0.03;;;0.03;;
17091;SDS011;8661;45.700;4.880;2022-09-28T01:17:57;0.00;;;0.00;;
17091;SDS011;8661;45.700;4.880;2022-09-28T01:20:33;1.60;;;0.53;;
17091;SDS011;8661;45.700;4.880;2022-09-28T01:23:23;0.03;;;0.03;;
17091;SDS011;8661;45.700;4.880;2022-09-28T01:26:16;0.40;;;0.20;;
17091;SDS011;8661;45.700;4.880;2022-09-28T01:29:01;0.10;;;0.10;;
17091;SDS011;8661;45.700;4.880;2022-09-28T01:31:34;0.03;;;0.03;;
17091;SDS011;8661;45.700;4.880;2022-09-28T01:34:03;0.07;;;0.07;;
17091;SDS011;8661;45.700;4.880;2022-09-28T01:36:36;0.07;;;0.07;;
17091;SDS011;8661;45.700;4.880;2022-09-28T01:39:08;0.10;;;0.10;;
17091;SDS011;8661;45.700;4.880;2022-09-28T01:41:40;0.10;;;0.10;;
17091;SDS011;8661;45.700;4.880;2022-09-28T01:44:11;0.10;;;0.10;;
17091;SDS011;8661;45.700;4.880;2022-09-28T01:46:43;0.30;;;0.30;;
17091;SDS011;8661;45.700;4.880;2022-09-28T01:49:14;0.00;;;0.00;;
17091;SDS011;8661;45.700;4.880;2022-09-28T01:51:45;0.10;;;0.10;;
17091;SDS011;8661;45.700;4.880;2022-09-28T01:54:16;0.07;;;0.07;;
17091;SDS011;8661;45.700;4.880;2022-09-28T01:56:51;0.00;;;0.00;;
17091;SDS011;8661;45.700;4.880;2022-09-28T01:59:21;0.00;;;0.00;;
17091;SDS011;8661;45.700;4.880;2022-09-28T02:01:52;0.10;;;0.10;;
17091;SDS011;8661;45.700;4.880;2022-09-28T02:04:23;0.00;;;0.00;;
17091;SDS011;8661;45.700;4.880;2022-09-28T02:06:55;0.87;;;0.70;;
17091;SDS011;8661;45.700;4.880;2022-09-28T02:09:28;3.63;;;0.20;;
17091;SDS011;8661;45.700;4.880;2022-09-28T02:12:02;2.60;;;0.97;;
17091;SDS011;8661;45.700;4.880;2022-09-28T02:14:33;5.17;;;2.13;;
17091;SDS011;8661;45.700;4.880;2022-09-28T02:17:03;2.10;;;1.10;;
17091;SDS011;8661;45.700;4.880;2022-09-28T02:19:31;2.33;;;1.20;;
17091;SDS011;8661;45.700;4.880;2022-09-28T02:22:00;1.90;;;1.17;;
17091;SDS011;8661;45.700;4.880;2022-09-28T02:24:34;4.83;;;1.47;;
17091;SDS011;8661;45.700;4.880;2022-09-28T02:27:07;3.30;;;1.43;;
17091;SDS011;8661;45.700;4.880;2022-09-28T02:29:39;6.97;;;1.33;;
17091;SDS011;8661;45.700;4.880;2022-09-28T02:32:05;4.57;;;1.10;;
17091;SDS011;8661;45.700;4.880;2022-09-28T02:34:32;2.30;;;1.13;;
17091;SDS011;8661;45.700;4.880;2022-09-28T02:37:00;3.23;;;1.20;;
17091;SDS011;8661;45.700;4.880;2022-09-28T02:39:28;4.43;;;1.23;;
17091;SDS011;8661;45.700;4.880;2022-09-28T02:42:00;4.10;;;1.50;;
17091;SDS011;8661;45.700;4.880;2022-09-28T02:44:46;3.00;;;1.03;;
17091;SDS011;8661;45.700;4.880;2022-09-28T02:47:25;5.50;;;1.50;;
17091;SDS011;8661;45.700;4.880;2022-09-28T02:50:03;6.27;;;1.37;;
17091;SDS011;8661;45.700;4.880;2022-09-28T02:52:49;4.90;;;1.20;;
17091;SDS011;8661;45.700;4.880;2022-09-28T02:55:30;2.17;;;1.20;;
17091;SDS011;8661;45.700;4.880;2022-09-28T02:58:13;4.30;;;1.33;;
17091;SDS011;8661;45.700;4.880;2022-09-28T03:00:56;3.73;;;1.07;;
17091;SDS011;8661;45.700;4.880;2022-09-28T03:03:30;2.73;;;1.10;;
17091;SDS011;8661;45.700;4.880;2022-09-28T03:06:03;5.47;;;1.50;;
17091;SDS011;8661;45.700;4.880;2022-09-28T03:08:36;2.13;;;1.20;;
17091;SDS011;8661;45.700;4.880;2022-09-28T03:11:06;4.43;;;1.47;;
17091;SDS011;8661;45.700;4.880;2022-09-28T03:13:37;2.30;;;1.37;;
17091;SDS011;8661;45.700;4.880;2022-09-28T03:16:10;4.40;;;1.10;;
17091;SDS011;8661;45.700;4.880;2022-09-28T03:18:39;2.63;;;1.37;;
17091;SDS011;8661;45.700;4.880;2022-09-28T03:21:06;3.47;;;1.47;;
17091;SDS011;8661;45.700;4.880;2022-09-28T03:23:34;3.10;;;1.43;;
17091;SDS011;8661;45.700;4.880;2022-09-28T03:26:01;2.17;;;0.97;;
17091;SDS011;8661;45.700;4.880;2022-09-28T03:28:28;4.63;;;1.10;;
17091;SDS011;8661;45.700;4.880;2022-09-28T03:30:55;3.83;;;1.20;;
17091;SDS011;8661;45.700;4.880;2022-09-28T03:33:24;3.03;;;1.13;;
17091;SDS011;8661;45.700;4.880;2022-09-28T03:35:50;3.07;;;1.03;;
17091;SDS011;8661;45.700;4.880;2022-09-28T03:38:17;5.67;;;1.00;;
17091;SDS011;8661;45.700;4.880;2022-09-28T03:40:51;1.87;;;0.97;;
17091;SDS011;8661;45.700;4.880;2022-09-28T03:43:18;1.47;;;1.10;;
17091;SDS011;8661;45.700;4.880;2022-09-28T03:45:50;4.00;;;1.00;;
17091;SDS011;8661;45.700;4.880;2022-09-28T03:48:19;3.70;;;1.10;;
17091;SDS011;8661;45.700;4.880;2022-09-28T03:50:56;3.13;;;1.50;;
17091;SDS011;8661;45.700;4.880;2022-09-28T03:53:24;2.63;;;1.17;;
17091;SDS011;8661;45.700;4.880;2022-09-28T03:55:53;3.83;;;1.10;;
17091;SDS011;8661;45.700;4.880;2022-09-28T03:58:20;5.03;;;1.23;;
17091;SDS011;8661;45.700;4.880;2022-09-28T04:00:48;2.50;;;1.37;;
17091;SDS011;8661;45.700;4.880;2022-09-28T04:03:15;3.20;;;1.20;;
17091;SDS011;8661;45.700;4.880;2022-09-28T04:05:49;2.17;;;1.20;;
17091;SDS011;8661;45.700;4.880;2022-09-28T04:08:17;1.57;;;1.10;;
17091;SDS011;8661;45.700;4.880;2022-09-28T04:10:46;2.77;;;1.00;;
17091;SDS011;8661;45.700;4.880;2022-09-28T04:13:13;4.40;;;1.27;;
17091;SDS011;8661;45.700;4.880;2022-09-28T04:15:40;2.73;;;1.10;;
17091;SDS011;8661;45.700;4.880;2022-09-28T04:18:08;4.37;;;1.30;;
17091;SDS011;8661;45.700;4.880;2022-09-28T04:20:35;3.90;;;1.10;;
17091;SDS011;8661;45.700;4.880;2022-09-28T04:23:06;3.93;;;1.20;;
17091;SDS011;8661;45.700;4.880;2022-09-28T04:25:34;4.50;;;1.10;;
17091;SDS011;8661;45.700;4.880;2022-09-28T04:28:00;2.43;;;1.20;;
17091;SDS011;8661;45.700;4.880;2022-09-28T04:30:45;3.37;;;1.30;;
17091;SDS011;8661;45.700;4.880;2022-09-28T04:33:12;2.80;;;1.43;;
17091;SDS011;8661;45.700;4.880;2022-09-28T04:35:39;2.67;;;1.20;;
17091;SDS011;8661;45.700;4.880;2022-09-28T04:38:07;2.80;;;1.10;;
17091;SDS011;8661;45.700;4.880;2022-09-28T04:40:34;6.97;;;1.37;;
17091;SDS011;8661;45.700;4.880;2022-09-28T04:43:01;3.87;;;1.00;;
17091;SDS011;8661;45.700;4.880;2022-09-28T04:45:28;3.43;;;1.00;;
17091;SDS011;8661;45.700;4.880;2022-09-28T04:47:56;1.93;;;1.10;;
17091;SDS011;8661;45.700;4.880;2022-09-28T04:50:23;2.40;;;0.83;;
17091;SDS011;8661;45.700;4.880;2022-09-28T04:52:50;2.30;;;1.10;;
17091;SDS011;8661;45.700;4.880;2022-09-28T04:55:18;3.60;;;1.30;;
17091;SDS011;8661;45.700;4.880;2022-09-28T04:57:45;3.10;;;1.27;;
17091;SDS011;8661;45.700;4.880;2022-09-28T05:00:13;3.20;;;1.00;;
17091;SDS011;8661;45.700;4.880;2022-09-28T05:03:01;2.90;;;1.13;;
17091;SDS011;8661;45.700;4.880;2022-09-28T05:05:29;2.10;;;0.93;;
17091;SDS011;8661;45.700;4.880;2022-09-28T05:07:56;6.43;;;1.30;;
17091;SDS011;8661;45.700;4.880;2022-09-28T05:10:25;4.40;;;1.30;;
17091;SDS011;8661;45.700;4.880;2022-09-28T05:12:52;4.60;;;1.30;;
17091;SDS011;8661;45.700;4.880;2022-09-28T05:15:19;2.27;;;1.13;;
17091;SDS011;8661;45.700;4.880;2022-09-28T05:17:45;2.20;;;1.10;;
17091;SDS011;8661;45.700;4.880;2022-09-28T05:20:12;1.87;;;1.10;;
17091;SDS011;8661;45.700;4.880;2022-09-28T05:22:40;3.07;;;1.20;;
17091;SDS011;8661;45.700;4.880;2022-09-28T05:25:09;2.30;;;1.10;;
17091;SDS011;8661;45.700;4.880;2022-09-28T05:27:38;4.30;;;1.00;;
17091;SDS011;8661;45.700;4.880;2022-09-28T05:30:05;4.13;;;1.00;;
17091;SDS011;8661;45.700;4.880;2022-09-28T05:32:35;5.60;;;1.33;;
17091;SDS011;8661;45.700;4.880;2022-09-28T05:35:05;3.07;;;1.10;;
17091;SDS011;8661;45.700;4.880;2022-09-28T05:37:33;4.53;;;1.00;;
17091;SDS011;8661;45.700;4.880;2022-09-28T05:40:01;1.20;;;0.70;;
17091;SDS011;8661;45.700;4.880;2022-09-28T05:42:28;5.17;;;1.40;;
17091;SDS011;8661;45.700;4.880;2022-09-28T05:44:56;1.53;;;0.90;;
17091;SDS011;8661;45.700;4.880;2022-09-28T05:47:23;5.43;;;1.30;;
17091;SDS011;8661;45.700;4.880;2022-09-28T05:49:50;1.80;;;1.00;;
17091;SDS011;8661;45.700;4.880;2022-09-28T05:52:18;4.40;;;1.20;;
17091;SDS011;8661;45.700;4.880;2022-09-28T05:54:45;4.10;;;1.00;;
17091;SDS011;8661;45.700;4.880;2022-09-28T05:57:12;4.27;;;1.20;;
17091;SDS011;8661;45.700;4.880;2022-09-28T05:59:39;3.30;;;0.80;;
17091;SDS011;8661;45.700;4.880;2022-09-28T06:02:09;5.93;;;1.10;;
17091;SDS011;8661;45.700;4.880;2022-09-28T06:04:36;4.80;;;1.13;;
17091;SDS011;8661;45.700;4.880;2022-09-28T06:07:03;3.00;;;1.27;;
17091;SDS011;8661;45.700;4.880;2022-09-28T06:09:30;2.10;;;0.90;;
17091;SDS011;8661;45.700;4.880;2022-09-28T06:11:57;3.00;;;1.00;;
17091;SDS011;8661;45.700;4.880;2022-09-28T06:14:24;3.03;;;0.80;;
17091;SDS011;8661;45.700;4.880;2022-09-28T06:16:51;3.30;;;1.40;;
17091;SDS011;8661;45.700;4.880;2022-09-28T06:19:20;4.63;;;1.17;;
17091;SDS011;8661;45.700;4.880;2022-09-28T06:21:47;2.80;;;1.03;;
17091;SDS011;8661;45.700;4.880;2022-09-28T06:24:14;6.13;;;1.30;;
17091;SDS011;8661;45.700;4.880;2022-09-28T06:26:41;5.47;;;1.20;;
17091;SDS011;8661;45.700;4.880;2022-09-28T06:29:08;2.10;;;0.83;;
17091;SDS011;8661;45.700;4.880;2022-09-28T06:31:35;4.10;;;1.30;;
17091;SDS011;8661;45.700;4.880;2022-09-28T06:34:02;2.40;;;1.20;;
17091;SDS011;8661;45.700;4.880;2022-09-28T06:36:30;2.90;;;0.80;;
17091;SDS011;8661;45.700;4.880;2022-09-28T06:38:57;3.60;;;0.80;;
17091;SDS011;8661;45.700;4.880;2022-09-28T06:41:25;4.70;;;1.57;;
17091;SDS011;8661;45.700;4.880;2022-09-28T06:43:52;1.67;;;0.93;;
17091;SDS011;8661;45.700;4.880;2022-09-28T06:46:19;2.43;;;1.00;;
17091;SDS011;8661;45.700;4.880;2022-09-28T06:48:46;2.13;;;0.90;;
17091;SDS011;8661;45.700;4.880;2022-09-28T06:51:14;3.30;;;0.90;;
17091;SDS011;8661;45.700;4.880;2022-09-28T06:53:42;3.10;;;1.13;;
17091;SDS011;8661;45.700;4.880;2022-09-28T06:56:09;4.60;;;0.80;;
17091;SDS011;8661;45.700;4.880;2022-09-28T06:58:37;2.30;;;1.20;;
17091;SDS011;8661;45.700;4.880;2022-09-28T07:01:04;0.70;;;0.70;;
17091;SDS011;8661;45.700;4.880;2022-09-28T07:03:31;2.17;;;0.83;;
17091;SDS011;8661;45.700;4.880;2022-09-28T07:05:58;1.67;;;1.00;;
17091;SDS011;8661;45.700;4.880;2022-09-28T07:08:25;7.13;;;0.93;;
17091;SDS011;8661;45.700;4.880;2022-09-28T07:10:54;5.30;;;0.80;;
17091;SDS011;8661;45.700;4.880;2022-09-28T07:13:21;3.67;;;1.13;;
17091;SDS011;8661;45.700;4.880;2022-09-28T07:15:52;2.87;;;0.97;;
17091;SDS011;8661;45.700;4.880;2022-09-28T07:18:20;5.23;;;0.80;;
17091;SDS011;8661;45.700;4.880;2022-09-28T07:20:47;2.40;;;0.77;;
17091;SDS011;8661;45.700;4.880;2022-09-28T07:23:14;3.97;;;1.47;;
17091;SDS011;8661;45.700;4.880;2022-09-28T07:25:42;1.37;;;0.70;;
17091;SDS011;8661;45.700;4.880;2022-09-28T07:28:13;3.60;;;1.03;;
17091;SDS011;8661;45.700;4.880;2022-09-28T07:30:41;5.03;;;0.90;;
17091;SDS011;8661;45.700;4.880;2022-09-28T07:33:10;1.80;;;0.80;;
17091;SDS011;8661;45.700;4.880;2022-09-28T07:35:38;2.60;;;1.00;;
17091;SDS011;8661;45.700;4.880;2022-09-28T07:38:07;3.90;;;0.80;;
17091;SDS011;8661;45.700;4.880;2022-09-28T07:40:35;3.60;;;1.00;;
17091;SDS011;8661;45.700;4.880;2022-09-28T07:43:21;3.00;;;1.00;;
17091;SDS011;8661;45.700;4.880;2022-09-28T07:45:48;2.53;;;0.90;;
17091;SDS011;8661;45.700;4.880;2022-09-28T07:48:18;1.07;;;0.70;;
17091;SDS011;8661;45.700;4.880;2022-09-28T07:50:46;2.03;;;0.90;;
17091;SDS011;8661;45.700;4.880;2022-09-28T07:53:15;3.60;;;1.20;;
17091;SDS011;8661;45.700;4.880;2022-09-28T07:55:43;1.97;;;0.80;;
17091;SDS011;8661;45.700;4.880;2022-09-28T07:58:15;3.93;;;1.47;;
17091;SDS011;8661;45.700;4.880;2022-09-28T08:00:44;2.53;;;0.80;;
17091;SDS011;8661;45.700;4.880;2022-09-28T08:03:12;3.57;;;0.80;;
17091;SDS011;8661;45.700;4.880;2022-09-28T08:05:39;1.63;;;0.80;;
17091;SDS011;8661;45.700;4.880;2022-09-28T08:08:07;2.47;;;1.00;;
17091;SDS011;8661;45.700;4.880;2022-09-28T08:10:34;1.80;;;0.90;;
17091;SDS011;8661;45.700;4.880;2022-09-28T08:13:01;4.00;;;0.87;;
17091;SDS011;8661;45.700;4.880;2022-09-28T08:15:30;2.73;;;0.93;;
17091;SDS011;8661;45.700;4.880;2022-09-28T08:18:03;4.77;;;1.17;;
17091;SDS011;8661;45.700;4.880;2022-09-28T08:20:31;3.60;;;0.90;;
17091;SDS011;8661;45.700;4.880;2022-09-28T08:23:15;3.57;;;1.10;;
17091;SDS011;8661;45.700;4.880;2022-09-28T08:25:45;4.00;;;0.80;;
17091;SDS011;8661;45.700;4.880;2022-09-28T08:28:13;1.87;;;0.80;;
17091;SDS011;8661;45.700;4.880;2022-09-28T08:30:41;3.13;;;1.27;;
17091;SDS011;8661;45.700;4.880;2022-09-28T08:33:10;1.27;;;0.80;;
17091;SDS011;8661;45.700;4.880;2022-09-28T08:35:37;2.30;;;1.40;;
17091;SDS011;8661;45.700;4.880;2022-09-28T08:38:05;1.53;;;0.90;;
17091;SDS011;8661;45.700;4.880;2022-09-28T08:40:33;1.37;;;0.90;;
17091;SDS011;8661;45.700;4.880;2022-09-28T08:43:13;3.65;;;0.80;;
17091;SDS011;8661;45.700;4.880;2022-09-28T08:45:49;1.90;;;0.97;;
17091;SDS011;8661;45.700;4.880;2022-09-28T08:48:19;2.33;;;1.20;;
17091;SDS011;8661;45.700;4.880;2022-09-28T08:51:09;3.13;;;1.10;;
17091;SDS011;8661;45.700;4.880;2022-09-28T08:53:41;2.30;;;0.80;;
17091;SDS011;8661;45.700;4.880;2022-09-28T08:56:14;2.40;;;0.67;;
17091;SDS011;8661;45.700;4.880;2022-09-28T08:58:50;1.73;;;0.83;;
17091;SDS011;8661;45.700;4.880;2022-09-28T09:01:21;4.87;;;1.00;;
17091;SDS011;8661;45.700;4.880;2022-09-28T09:03:52;2.57;;;0.87;;
17091;SDS011;8661;45.700;4.880;2022-09-28T09:06:21;1.67;;;1.00;;
17091;SDS011;8661;45.700;4.880;2022-09-28T09:08:58;1.67;;;0.90;;
17091;SDS011;8661;45.700;4.880;2022-09-28T09:11:47;2.00;;;0.90;;
17091;SDS011;8661;45.700;4.880;2022-09-28T09:17:42;3.50;;;1.10;;
17091;SDS011;8661;45.700;4.880;2022-09-28T09:20:27;3.00;;;1.00;;
17091;SDS011;8661;45.700;4.880;2022-09-28T09:23:04;2.53;;;1.20;;
17091;SDS011;8661;45.700;4.880;2022-09-28T09:25:39;1.97;;;1.00;;
17091;SDS011;8661;45.700;4.880;2022-09-28T09:28:16;1.80;;;0.70;;
17091;SDS011;8661;45.700;4.880;2022-09-28T09:31:14;3.87;;;1.00;;
17091;SDS011;8661;45.700;4.880;2022-09-28T09:34:04;5.03;;;0.87;;
17091;SDS011;8661;45.700;4.880;2022-09-28T09:37:07;2.10;;;1.00;;
17091;SDS011;8661;45.700;4.880;2022-09-28T09:39:48;4.00;;;1.20;;
17091;SDS011;8661;45.700;4.880;2022-09-28T09:42:30;2.43;;;0.90;;
17091;SDS011;8661;45.700;4.880;2022-09-28T09:45:16;2.37;;;0.87;;
17091;SDS011;8661;45.700;4.880;2022-09-28T09:47:52;1.47;;;0.90;;
17091;SDS011;8661;45.700;4.880;2022-09-28T09:50:25;2.60;;;0.70;;
17091;SDS011;8661;45.700;4.880;2022-09-28T09:52:59;1.77;;;0.60;;
17091;SDS011;8661;45.700;4.880;2022-09-28T09:55:30;1.73;;;1.00;;
17091;SDS011;8661;45.700;4.880;2022-09-28T09:58:03;3.93;;;1.07;;
17091;SDS011;8661;45.700;4.880;2022-09-28T10:00:34;2.50;;;0.60;;
17091;SDS011;8661;45.700;4.880;2022-09-28T10:03:04;1.97;;;0.87;;
17091;SDS011;8661;45.700;4.880;2022-09-28T10:05:31;2.00;;;0.50;;
17091;SDS011;8661;45.700;4.880;2022-09-28T10:08:03;2.47;;;0.70;;
17091;SDS011;8661;45.700;4.880;2022-09-28T10:10:37;4.10;;;1.03;;
17091;SDS011;8661;45.700;4.880;2022-09-28T10:13:13;2.17;;;1.17;;
17091;SDS011;8661;45.700;4.880;2022-09-28T10:15:40;2.97;;;1.03;;
17091;SDS011;8661;45.700;4.880;2022-09-28T10:18:10;1.47;;;0.80;;
17091;SDS011;8661;45.700;4.880;2022-09-28T10:20:39;1.80;;;0.77;;
17091;SDS011;8661;45.700;4.880;2022-09-28T10:23:11;2.33;;;0.70;;
17091;SDS011;8661;45.700;4.880;2022-09-28T10:25:44;3.00;;;0.70;;
17091;SDS011;8661;45.700;4.880;2022-09-28T10:28:15;2.23;;;0.80;;
17091;SDS011;8661;45.700;4.880;2022-09-28T10:30:45;0.63;;;0.60;;
17091;SDS011;8661;45.700;4.880;2022-09-28T10:33:28;1.27;;;0.70;;
17091;SDS011;8661;45.700;4.880;2022-09-28T10:35:57;0.83;;;0.50;;
17091;SDS011;8661;45.700;4.880;2022-09-28T10:38:26;3.53;;;0.70;;
17091;SDS011;8661;45.700;4.880;2022-09-28T10:40:57;2.77;;;0.90;;
17091;SDS011;8661;45.700;4.880;2022-09-28T10:43:25;1.47;;;0.60;;
17091;SDS011;8661;45.700;4.880;2022-09-28T10:46:00;4.07;;;1.23;;
17091;SDS011;8661;45.700;4.880;2022-09-28T10:48:34;1.20;;;1.10;;
17091;SDS011;8661;45.700;4.880;2022-09-28T10:51:12;1.90;;;0.80;;
17091;SDS011;8661;45.700;4.880;2022-09-28T10:53:40;3.30;;;0.80;;
17091;SDS011;8661;45.700;4.880;2022-09-28T10:56:19;4.37;;;0.70;;
17091;SDS011;8661;45.700;4.880;2022-09-28T10:58:47;1.30;;;0.63;;
17091;SDS011;8661;45.700;4.880;2022-09-28T11:01:15;0.97;;;0.60;;
17091;SDS011;8661;45.700;4.880;2022-09-28T11:03:48;0.97;;;0.60;;
17091;SDS011;8661;45.700;4.880;2022-09-28T11:06:24;2.03;;;0.63;;
17091;SDS011;8661;45.700;4.880;2022-09-28T11:08:53;2.00;;;0.60;;
17091;SDS011;8661;45.700;4.880;2022-09-28T11:11:22;3.47;;;0.70;;
17091;SDS011;8661;45.700;4.880;2022-09-28T11:13:50;2.30;;;0.80;;
17091;SDS011;8661;45.700;4.880;2022-09-28T11:16:19;1.00;;;0.60;;
17091;SDS011;8661;45.700;4.880;2022-09-28T11:18:51;3.33;;;0.97;;
17091;SDS011;8661;45.700;4.880;2022-09-28T11:21:20;2.10;;;0.90;;
17091;SDS011;8661;45.700;4.880;2022-09-28T11:24:00;2.00;;;0.70;;
17091;SDS011;8661;45.700;4.880;2022-09-28T11:26:38;0.50;;;0.40;;
17091;SDS011;8661;45.700;4.880;2022-09-28T11:29:17;3.13;;;0.73;;
17091;SDS011;8661;45.700;4.880;2022-09-28T11:31:46;2.30;;;0.60;;
17091;SDS011;8661;45.700;4.880;2022-09-28T11:34:14;1.77;;;0.80;;
17091;SDS011;8661;45.700;4.880;2022-09-28T11:36:56;0.70;;;0.57;;
17091;SDS011;8661;45.700;4.880;2022-09-28T11:39:52;1.60;;;0.50;;
17091;SDS011;8661;45.700;4.880;2022-09-28T11:42:32;1.60;;;0.50;;
17091;SDS011;8661;45.700;4.880;2022-09-28T11:45:15;1.13;;;0.63;;
17091;SDS011;8661;45.700;4.880;2022-09-28T11:47:52;2.03;;;0.70;;
17091;SDS011;8661;45.700;4.880;2022-09-28T11:50:25;2.07;;;0.60;;
17091;SDS011;8661;45.700;4.880;2022-09-28T11:52:56;2.20;;;0.70;;
17091;SDS011;8661;45.700;4.880;2022-09-28T11:55:37;0.90;;;0.60;;
17091;SDS011;8661;45.700;4.880;2022-09-28T11:58:09;1.20;;;0.80;;
17091;SDS011;8661;45.700;4.880;2022-09-28T12:00:41;1.93;;;0.60;;
17091;SDS011;8661;45.700;4.880;2022-09-28T12:03:13;2.43;;;0.53;;
17091;SDS011;8661;45.700;4.880;2022-09-28T12:05:44;0.87;;;0.53;;
17091;SDS011;8661;45.700;4.880;2022-09-28T12:08:15;1.80;;;0.60;;
17091;SDS011;8661;45.700;4.880;2022-09-28T12:10:52;2.13;;;0.70;;
17091;SDS011;8661;45.700;4.880;2022-09-28T12:13:24;0.50;;;0.50;;
17091;SDS011;8661;45.700;4.880;2022-09-28T12:15:53;1.17;;;0.60;;
17091;SDS011;8661;45.700;4.880;2022-09-28T12:18:25;0.60;;;0.50;;
17091;SDS011;8661;45.700;4.880;2022-09-28T12:21:06;1.33;;;0.57;;
17091;SDS011;8661;45.700;4.880;2022-09-28T12:23:44;0.87;;;0.40;;
17091;SDS011;8661;45.700;4.880;2022-09-28T12:26:23;1.97;;;0.40;;
17091;SDS011;8661;45.700;4.880;2022-09-28T12:28:54;2.10;;;0.50;;
17091;SDS011;8661;45.700;4.880;2022-09-28T12:31:25;0.83;;;0.57;;
17091;SDS011;8661;45.700;4.880;2022-09-28T12:33:57;2.20;;;0.60;;
17091;SDS011;8661;45.700;4.880;2022-09-28T12:36:37;1.90;;;0.80;;
17091;SDS011;8661;45.700;4.880;2022-09-28T12:39:20;1.43;;;0.47;;
17091;SDS011;8661;45.700;4.880;2022-09-28T12:42:05;1.73;;;0.70;;
17091;SDS011;8661;45.700;4.880;2022-09-28T12:44:46;1.80;;;0.70;;
17091;SDS011;8661;45.700;4.880;2022-09-28T12:47:39;2.20;;;1.00;;
17091;SDS011;8661;45.700;4.880;2022-09-28T12:50:18;1.97;;;1.03;;
17091;SDS011;8661;45.700;4.880;2022-09-28T12:52:55;2.90;;;1.00;;
17091;SDS011;8661;45.700;4.880;2022-09-28T12:55:35;3.47;;;1.00;;
17091;SDS011;8661;45.700;4.880;2022-09-28T12:58:21;2.43;;;0.90;;
17091;SDS011;8661;45.700;4.880;2022-09-28T13:01:08;6.53;;;0.80;;
17091;SDS011;8661;45.700;4.880;2022-09-28T13:03:51;2.50;;;1.00;;
17091;SDS011;8661;45.700;4.880;2022-09-28T13:09:20;1.43;;;0.63;;
17091;SDS011;8661;45.700;4.880;2022-09-28T13:12:09;3.00;;;0.80;;
17091;SDS011;8661;45.700;4.880;2022-09-28T13:17:50;5.10;;;2.87;;
17091;SDS011;8661;45.700;4.880;2022-09-28T13:20:28;5.70;;;2.50;;
17091;SDS011;8661;45.700;4.880;2022-09-28T13:23:11;6.17;;;3.37;;
17091;SDS011;8661;45.700;4.880;2022-09-28T13:25:43;3.67;;;1.70;;
17091;SDS011;8661;45.700;4.880;2022-09-28T13:28:15;5.07;;;0.80;;
17091;SDS011;8661;45.700;4.880;2022-09-28T13:30:45;2.77;;;1.30;;
17091;SDS011;8661;45.700;4.880;2022-09-28T13:33:16;0.00;;;0.00;;
17091;SDS011;8661;45.700;4.880;2022-09-28T13:35:48;0.00;;;0.00;;
17091;SDS011;8661;45.700;4.880;2022-09-28T13:41:17;0.00;;;0.00;;
17091;SDS011;8661;45.700;4.880;2022-09-28T13:46:47;0.00;;;0.00;;
17091;SDS011;8661;45.700;4.880;2022-09-28T13:49:34;0.00;;;0.00;;
17091;SDS011;8661;45.700;4.880;2022-09-28T13:52:11;0.10;;;0.10;;
17091;SDS011;8661;45.700;4.880;2022-09-28T13:54:59;0.00;;;0.00;;
17091;SDS011;8661;45.700;4.880;2022-09-28T13:57:40;0.00;;;0.00;;
17091;SDS011;8661;45.700;4.880;2022-09-28T14:00:15;0.00;;;0.00;;
17091;SDS011;8661;45.700;4.880;2022-09-28T14:02:46;0.00;;;0.00;;
17091;SDS011;8661;45.700;4.880;2022-09-28T14:05:33;0.00;;;0.00;;
17091;SDS011;8661;45.700;4.880;2022-09-28T14:08:25;0.00;;;0.00;;
17091;SDS011;8661;45.700;4.880;2022-09-28T14:20:14;0.00;;;0.00;;
17091;SDS011;8661;45.700;4.880;2022-09-28T14:22:48;0.00;;;0.00;;
17091;SDS011;8661;45.700;4.880;2022-09-28T14:25:35;0.00;;;0.00;;
17091;SDS011;8661;45.700;4.880;2022-09-28T14:31:05;0.00;;;0.00;;
17091;SDS011;8661;45.700;4.880;2022-09-28T14:33:35;0.00;;;0.00;;
17091;SDS011;8661;45.700;4.880;2022-09-28T14:36:07;0.00;;;0.00;;
17091;SDS011;8661;45.700;4.880;2022-09-28T14:39:18;0.00;;;0.00;;
17091;SDS011;8661;45.700;4.880;2022-09-28T14:42:09;0.00;;;0.00;;
17091;SDS011;8661;45.700;4.880;2022-09-28T14:47:43;0.00;;;0.00;;
17091;SDS011;8661;45.700;4.880;2022-09-28T14:50:29;0.00;;;0.00;;
17091;SDS011;8661;45.700;4.880;2022-09-28T14:52:56;0.00;;;0.00;;
17091;SDS011;8661;45.700;4.880;2022-09-28T14:55:33;0.00;;;0.00;;
17091;SDS011;8661;45.700;4.880;2022-09-28T14:58:08;0.00;;;0.00;;
17091;SDS011;8661;45.700;4.880;2022-09-28T15:00:43;0.00;;;0.00;;
17091;SDS011;8661;45.700;4.880;2022-09-28T15:03:12;0.00;;;0.00;;
17091;SDS011;8661;45.700;4.880;2022-09-28T15:05:41;0.00;;;0.00;;
17091;SDS011;8661;45.700;4.880;2022-09-28T15:08:11;0.00;;;0.00;;
17091;SDS011;8661;45.700;4.880;2022-09-28T15:10:43;0.00;;;0.00;;
17091;SDS011;8661;45.700;4.880;2022-09-28T15:13:17;0.00;;;0.00;;
17091;SDS011;8661;45.700;4.880;2022-09-28T15:15:50;0.00;;;0.00;;
17091;SDS011;8661;45.700;4.880;2022-09-28T15:18:29;0.20;;;0.13;;
17091;SDS011;8661;45.700;4.880;2022-09-28T15:21:15;0.00;;;0.00;;
17091;SDS011;8661;45.700;4.880;2022-09-28T15:23:43;0.00;;;0.00;;
17091;SDS011;8661;45.700;4.880;2022-09-28T15:26:22;0.00;;;0.00;;
17091;SDS011;8661;45.700;4.880;2022-09-28T15:28:51;0.00;;;0.00;;
17091;SDS011;8661;45.700;4.880;2022-09-28T15:31:19;0.00;;;0.00;;
17091;SDS011;8661;45.700;4.880;2022-09-28T15:33:47;0.00;;;0.00;;
17091;SDS011;8661;45.700;4.880;2022-09-28T15:36:34;0.00;;;0.00;;
17091;SDS011;8661;45.700;4.880;2022-09-28T15:39:04;0.00;;;0.00;;
17091;SDS011;8661;45.700;4.880;2022-09-28T15:41:37;0.00;;;0.00;;
17091;SDS011;8661;45.700;4.880;2022-09-28T15:44:14;0.00;;;0.00;;
17091;SDS011;8661;45.700;4.880;2022-09-28T15:47:04;0.00;;;0.00;;
17091;SDS011;8661;45.700;4.880;2022-09-28T15:49:35;0.10;;;0.10;;
17091;SDS011;8661;45.700;4.880;2022-09-28T15:52:05;0.00;;;0.00;;
17091;SDS011;8661;45.700;4.880;2022-09-28T15:54:46;0.00;;;0.00;;
17091;SDS011;8661;45.700;4.880;2022-09-28T15:57:27;0.00;;;0.00;;
17091;SDS011;8661;45.700;4.880;2022-09-28T15:59:58;0.00;;;0.00;;
17091;SDS011;8661;45.700;4.880;2022-09-28T16:02:26;0.00;;;0.00;;